Time;durP1;ratioP1;P1;durP2;ratioP2;P2;SDS_P1;SDS_P2;PMS_P1;PMS_P2;Temp;Humidity;BMP_temperature;BMP_pressure;BME280_temperature;BME280_humidity;BME280_pressure;Samples;Min_cycle;Max_cycle;Signal;HPM_P1;HPM_P2
2022/04/16 00:00:28;;;;;;;14.75;12.80;;;;;;;9.81;100.00;100452.06;6123653;23;20017;-80
2022/04/16 00:02:54;;;;;;;14.35;11.35;;;;;;;9.79;100.00;100454.47;6123490;23;20021;-80
2022/04/16 00:05:20;;;;;;;12.98;11.55;;;;;;;9.79;100.00;100446.16;6119705;23;20024;-80
2022/04/16 00:08:06;;;;;;;12.43;10.95;;;;;;;9.77;100.00;100471.53;6122912;23;20602;-80
2022/04/16 00:10:32;;;;;;;12.07;10.60;;;;;;;9.74;100.00;100472.38;6123143;23;20125;-80
2022/04/16 00:12:57;;;;;;;11.73;9.43;;;;;;;9.71;99.40;100472.41;6122974;23;20406;-80
2022/04/16 00:15:23;;;;;;;10.77;9.13;;;;;;;9.68;100.00;100481.56;6123599;23;20045;-80
2022/04/16 00:17:48;;;;;;;10.27;9.18;;;;;;;9.62;98.80;100483.25;6097358;23;20014;-80
2022/04/16 00:20:14;;;;;;;10.43;8.25;;;;;;;9.55;96.69;100481.38;6123399;23;20014;-80
2022/04/16 00:22:40;;;;;;;9.02;7.38;;;;;;;9.54;94.03;100479.81;6097865;23;20010;-80
2022/04/16 00:25:07;;;;;;;10.10;7.95;;;;;;;9.44;94.93;100491.81;6123550;23;20014;-80
2022/04/16 00:27:34;;;;;;;9.00;7.65;;;;;;;9.42;94.56;100485.94;6122730;23;20021;-80
2022/04/16 00:30:01;;;;;;;10.75;7.93;;;;;;;9.39;93.28;100475.66;6123674;23;20009;-80
2022/04/16 00:32:27;;;;;;;9.02;7.18;;;;;;;9.38;92.71;100474.88;6097400;23;20439;-80
2022/04/16 00:34:53;;;;;;;9.75;7.25;;;;;;;9.36;92.90;100465.44;6123415;23;20028;-80
2022/04/16 00:37:18;;;;;;;9.15;7.03;;;;;;;9.26;91.96;100456.09;6123184;23;20037;-80
2022/04/16 00:39:44;;;;;;;8.68;6.90;;;;;;;9.22;91.13;100449.81;6123143;23;20010;-80
2022/04/16 00:42:09;;;;;;;8.38;6.82;;;;;;;9.17;91.08;100447.53;6122417;23;20036;-80
2022/04/16 00:44:35;;;;;;;8.40;6.90;;;;;;;9.16;91.41;100450.72;6122603;23;20021;-80
2022/04/16 00:47:00;;;;;;;8.57;6.47;;;;;;;9.10;91.21;100453.16;6123408;23;20014;-80
2022/04/16 00:49:26;;;;;;;8.43;6.68;;;;;;;9.06;91.67;100457.19;6123127;23;20014;-80
2022/04/16 00:51:51;;;;;;;7.30;6.18;;;;;;;8.97;90.80;100466.00;6123197;23;20109;-80
2022/04/16 00:54:18;;;;;;;8.32;6.32;;;;;;;8.90;90.95;100466.06;6123239;23;20014;-80
2022/04/16 00:56:44;;;;;;;7.07;5.88;;;;;;;8.93;90.04;100476.34;6123413;23;20371;-80
2022/04/16 00:59:09;;;;;;;7.80;5.80;;;;;;;8.88;90.30;100465.72;6123112;23;20029;-80
2022/04/16 01:04:01;;;;;;;7.43;5.82;;;;;;;8.77;90.91;100465.09;6140102;23;20021;-91
2022/04/16 01:06:40;;;;;;;7.40;5.28;;;;;;;8.64;90.35;100453.00;6149348;23;20160;-91
2022/04/16 01:09:06;;;;;;;6.93;5.25;;;;;;;8.70;90.17;100467.91;6149777;23;20093;-90
2022/04/16 01:11:32;;;;;;;6.40;4.95;;;;;;;8.66;89.32;100462.44;6152395;23;20013;-92
2022/04/16 01:13:59;;;;;;;5.95;4.57;;;;;;;8.64;89.50;100464.06;6151993;23;20013;-90
2022/04/16 01:16:28;;;;;;;5.63;4.63;;;;;;;8.60;90.06;100468.84;6152328;23;20092;-92
2022/04/16 01:18:55;;;;;;;5.68;4.68;;;;;;;8.55;90.53;100461.00;6152282;23;20001;-92
2022/04/16 01:21:20;;;;;;;6.68;5.03;;;;;;;8.52;89.96;100456.28;6152912;23;20040;-91
2022/04/16 01:23:46;;;;;;;5.50;4.65;;;;;;;8.50;90.04;100456.69;6150645;23;20420;-85
2022/04/16 01:26:12;;;;;;;6.55;4.88;;;;;;;8.46;90.91;100457.94;6152934;23;20320;-85
2022/04/16 01:28:40;;;;;;;5.57;4.43;;;;;;;8.41;90.18;100459.94;6153162;23;20025;-84
2022/04/16 01:31:06;;;;;;;5.40;4.60;;;;;;;8.39;90.05;100454.06;6152911;23;20036;-85
2022/04/16 01:33:31;;;;;;;5.20;4.30;;;;;;;8.35;90.86;100456.09;6150962;23;20002;-85
2022/04/16 01:35:57;;;;;;;5.88;4.65;;;;;;;8.21;91.32;100456.19;6152732;23;20024;-84
2022/04/16 01:38:25;;;;;;;5.07;4.20;;;;;;;8.22;90.15;100448.69;6152212;23;20009;-85
2022/04/16 01:41:00;;;;;;;6.30;3.95;;;;;;;8.28;90.99;100447.84;6151671;23;20052;-85
2022/04/16 01:43:25;;;;;;;5.75;4.15;;;;;;;8.21;90.65;100450.66;6150562;23;20018;-92
2022/04/16 01:45:51;;;;;;;5.32;4.18;;;;;;;8.16;91.27;100453.91;6152725;23;20008;-92
2022/04/16 01:48:17;;;;;;;5.25;4.03;;;;;;;8.09;90.65;100431.84;6152694;23;20013;-91
2022/04/16 01:50:43;;;;;;;4.10;3.60;;;;;;;8.08;91.76;100427.53;6151668;23;20450;-91
2022/04/16 01:53:09;;;;;;;4.97;3.67;;;;;;;8.10;91.26;100433.41;6152746;23;20266;-92
2022/04/16 01:55:34;;;;;;;4.82;3.83;;;;;;;8.06;91.66;100424.38;6153230;23;20070;-91
2022/04/16 01:58:00;;;;;;;4.82;3.58;;;;;;;8.04;91.62;100424.03;6152445;23;20001;-91
2022/04/16 02:00:26;;;;;;;5.20;3.92;;;;;;;8.06;92.22;100427.16;6153286;23;20014;-91
2022/04/16 02:02:52;;;;;;;4.60;3.60;;;;;;;7.93;91.76;100415.81;6151185;23;20117;-91
2022/04/16 02:05:17;;;;;;;3.88;3.17;;;;;;;7.96;91.81;100425.28;6152596;23;20064;-92
2022/04/16 02:07:43;;;;;;;4.60;3.60;;;;;;;8.00;92.21;100436.31;6152862;23;20009;-92
2022/04/16 02:10:09;;;;;;;4.28;3.58;;;;;;;7.96;91.91;100426.09;6153363;23;20080;-92
2022/04/16 02:12:38;;;;;;;5.25;3.10;;;;;;;7.97;92.33;100429.59;6151097;23;20063;-91
2022/04/16 02:15:05;;;;;;;4.10;3.30;;;;;;;7.93;93.14;100426.09;6151766;23;20020;-92
2022/04/16 02:17:32;;;;;;;3.88;3.30;;;;;;;7.79;92.65;100409.66;6153414;23;20009;-91
2022/04/16 02:19:58;;;;;;;4.13;3.42;;;;;;;7.73;93.61;100408.53;6154343;23;20065;-92
2022/04/16 02:22:24;;;;;;;4.68;3.47;;;;;;;7.66;93.09;100405.84;6154940;23;20006;-91
2022/04/16 02:24:49;;;;;;;4.22;3.25;;;;;;;7.64;94.03;100408.25;6153344;23;20017;-90
2022/04/16 02:27:15;;;;;;;4.13;3.28;;;;;;;7.64;93.65;100400.75;6153040;23;20442;-92
2022/04/16 02:29:41;;;;;;;4.30;3.60;;;;;;;7.65;93.66;100401.50;6153301;23;20009;-91
2022/04/16 02:32:07;;;;;;;4.57;3.75;;;;;;;7.63;93.91;100390.88;6154640;23;20037;-91
2022/04/16 02:34:32;;;;;;;4.40;3.50;;;;;;;7.70;94.13;100401.84;6154866;23;20045;-91
2022/04/16 02:36:59;;;;;;;4.72;3.80;;;;;;;7.65;93.70;100404.25;6152177;23;20002;-92
2022/04/16 02:39:25;;;;;;;4.07;3.60;;;;;;;7.70;94.10;100406.59;6128439;23;20013;-93
2022/04/16 02:41:51;;;;;;;4.70;4.10;;;;;;;7.68;94.22;100406.22;6155035;23;20009;-92
2022/04/16 02:47:06;;;;;;;;;;;;;;;7.76;93.73;100400.22;6153285;23;20042;-92
2022/04/16 02:49:33;;;;;;;5.03;3.97;;;;;;;7.81;93.44;100408.06;6154422;23;19913;-90
2022/04/16 02:51:59;;;;;;;4.90;3.90;;;;;;;7.81;93.36;100407.25;6154230;23;20348;-91
2022/04/16 02:54:25;;;;;;;6.13;4.13;;;;;;;7.75;93.42;100392.34;6154417;23;20021;-91
2022/04/16 02:56:51;;;;;;;5.90;4.10;;;;;;;7.79;93.55;100409.66;6154691;23;20013;-84
2022/04/16 02:59:16;;;;;;;4.32;3.63;;;;;;;7.73;93.50;100400.25;6151899;23;20009;-85
2022/04/16 03:01:42;;;;;;;3.85;3.20;;;;;;;7.72;93.37;100401.47;6154332;23;20001;-84
2022/04/16 03:04:07;;;;;;;4.00;3.33;;;;;;;7.83;92.95;100404.91;6153599;23;20014;-85
2022/04/16 03:06:33;;;;;;;5.68;3.55;;;;;;;7.86;92.04;100401.31;6152827;23;20396;-84
2022/04/16 03:08:59;;;;;;;4.30;3.38;;;;;;;7.89;92.04;100395.75;6152555;23;20048;-84
2022/04/16 03:11:24;;;;;;;4.63;3.60;;;;;;;7.91;90.71;100400.88;6152421;23;20013;-84
2022/04/16 03:13:49;;;;;;;4.20;3.50;;;;;;;7.92;90.80;100392.19;6152710;23;20016;-85
2022/04/16 03:18:59;;;;;;;4.30;3.63;;;;;;;7.91;91.09;100398.09;6153397;23;20059;-91
2022/04/16 03:21:25;;;;;;;5.10;3.55;;;;;;;7.94;90.81;100391.75;6152228;23;20018;-91
2022/04/16 03:23:50;;;;;;;4.35;3.60;;;;;;;7.94;90.64;100400.03;6127027;23;20459;-91
2022/04/16 03:26:16;;;;;;;4.38;3.53;;;;;;;7.95;90.81;100404.38;6153743;23;20436;-90
2022/04/16 03:28:41;;;;;;;3.90;2.95;;;;;;;7.89;90.82;100404.03;6152539;23;20081;-91
2022/04/16 03:31:07;;;;;;;4.47;3.60;;;;;;;7.86;90.76;100398.53;6153399;23;20013;-90
2022/04/16 03:33:32;;;;;;;3.85;3.30;;;;;;;7.94;89.92;100406.34;6153343;23;20380;-85
2022/04/16 03:35:58;;;;;;;4.88;3.38;;;;;;;7.93;90.34;100404.00;6151966;23;20096;-84
2022/04/16 03:38:24;;;;;;;3.83;3.10;;;;;;;7.95;90.68;100412.66;6152112;23;20432;-84
2022/04/16 03:40:50;;;;;;;4.22;3.40;;;;;;;7.93;90.43;100412.28;6152631;23;20033;-84
2022/04/16 03:43:19;;;;;;;4.32;3.63;;;;;;;7.92;90.40;100413.50;6151646;23;20037;-84
2022/04/16 03:45:44;;;;;;;3.72;3.20;;;;;;;7.78;89.98;100394.28;6154261;23;20092;-84
2022/04/16 03:48:10;;;;;;;4.43;3.35;;;;;;;7.86;90.18;100413.16;6153203;23;20032;-84
2022/04/16 03:50:36;;;;;;;4.45;3.10;;;;;;;7.78;91.02;100408.88;6152703;23;20052;-84
2022/04/16 03:53:02;;;;;;;3.92;3.35;;;;;;;7.78;91.02;100414.41;6126722;23;20017;-84
2022/04/16 04:01:00;;;;;;;4.40;3.80;;;;;;;7.79;91.24;100412.44;6153370;23;20509;-84
2022/04/16 04:03:26;;;;;;;4.60;3.80;;;;;;;7.80;91.26;100411.25;6153386;23;20013;-84
2022/04/16 04:05:54;;;;;;;5.15;4.10;;;;;;;7.85;91.36;100408.00;6127380;23;20013;-84
2022/04/16 04:08:22;;;;;;;4.47;3.88;;;;;;;7.89;90.88;100406.00;6151156;23;20020;-84
2022/04/16 04:10:47;;;;;;;4.50;3.80;;;;;;;7.87;91.68;100411.16;6150718;23;20364;-84
2022/04/16 04:13:14;;;;;;;4.10;3.70;;;;;;;7.83;91.77;100404.91;6151937;23;20013;-91
2022/04/16 04:15:40;;;;;;;6.22;4.15;;;;;;;7.86;91.85;100415.13;6152401;23;20084;-91
2022/04/16 04:18:05;;;;;;;4.47;3.90;;;;;;;7.87;91.70;100411.16;6127630;23;20101;-92
2022/04/16 04:20:31;;;;;;;5.22;4.30;;;;;;;7.80;91.87;100398.22;6152654;23;20092;-92
2022/04/16 04:22:57;;;;;;;5.63;4.18;;;;;;;7.85;92.20;100413.53;6151511;23;20022;-92
2022/04/16 04:25:22;;;;;;;5.63;4.50;;;;;;;7.85;92.45;100419.06;6127550;23;20014;-92
2022/04/16 04:27:48;;;;;;;4.80;4.20;;;;;;;7.83;92.43;100416.72;6152290;23;20084;-92
2022/04/16 04:30:14;;;;;;;5.40;4.13;;;;;;;7.86;92.01;100418.66;6151774;23;20016;-92
2022/04/16 04:32:39;;;;;;;5.63;4.07;;;;;;;7.91;91.82;100417.44;6152067;23;20021;-91
2022/04/16 04:35:06;;;;;;;4.38;3.80;;;;;;;8.01;91.87;100422.06;6153173;23;20068;-92
2022/04/16 04:37:32;;;;;;;4.97;4.22;;;;;;;8.06;91.34;100424.38;6151866;23;20013;-92
2022/04/16 04:39:58;;;;;;;5.55;3.70;;;;;;;8.04;91.13;100410.22;6151482;23;20016;-91
2022/04/16 04:42:27;;;;;;;4.65;4.10;;;;;;;8.18;90.97;100415.56;6152004;23;20017;-91
2022/04/16 04:44:53;;;;;;;5.13;4.03;;;;;;;8.20;90.42;100410.44;6152044;23;20468;-91
2022/04/16 04:47:19;;;;;;;4.28;3.75;;;;;;;8.27;89.96;100412.31;6153275;23;20016;-92
2022/04/16 04:49:45;;;;;;;4.30;3.67;;;;;;;8.31;90.09;100415.84;6151647;23;20006;-91
2022/04/16 04:52:10;;;;;;;5.20;3.95;;;;;;;8.33;90.00;100422.53;6152906;23;20308;-84
2022/04/16 04:54:36;;;;;;;4.70;4.13;;;;;;;8.39;89.54;100420.91;6151681;23;20005;-84
2022/04/16 04:57:05;;;;;;;5.50;3.50;;;;;;;8.35;89.65;100409.09;6153006;23;20012;-84
2022/04/16 04:59:30;;;;;;;5.53;3.70;;;;;;;8.39;90.16;100415.38;6153000;23;20037;-84
2022/04/16 05:01:56;;;;;;;5.38;4.03;;;;;;;8.47;90.56;100431.88;6126002;23;20427;-84
2022/04/16 05:04:21;;;;;;;5.50;3.75;;;;;;;8.61;88.84;100437.22;6150841;23;20041;-84
2022/04/16 05:06:47;;;;;;;4.43;3.95;;;;;;;8.62;88.20;100438.78;6152919;23;20021;-84
2022/04/16 05:09:12;;;;;;;4.43;4.00;;;;;;;8.71;88.54;100436.31;6152543;23;20017;-84
2022/04/16 05:11:38;;;;;;;5.00;4.10;;;;;;;8.78;88.18;100431.47;6153625;23;20021;-91
